KMHK/MHK METAR and TAF weather

Enter ICAO airport designator
Station Type Date Time Source
KMHK METAR 2019/04/22 17:52 UTC NOAA

KMHK 221752Z 31007G19KT 10SM SCT024 19/11 A3000 RMK AO2 SLP156 T01940111 10194 20167 51005


Station Type Date Time Source
KMHK Decoded METAR 2019/04/22 17:52 UTC NOAA

MANHATTAN REGIONAL AIRPORT, KS, United States (KMHK) 39-08N 96-41W 317M
Apr 22, 2019 - 01:52 PM EDT / 2019.04.22 1752 UTC
Wind: from the NW (310 degrees) at 8 MPH (7 KT) gusting to 22 MPH (19 KT):0
Visibility: 10 mile(s):0
Sky conditions: partly cloudy
Temperature: 66.9 F (19.4 C)
Dew Point: 52.0 F (11.1 C)
Relative Humidity: 58%
Pressure (altimeter): 30 in. Hg (1015 hPa)
Pressure tendency: 0.01 inches (0.5 hPa) higher than three hours ago
ob: KMHK 221752Z 31007G19KT 10SM SCT024 19/11 A3000 RMK AO2 SLP156 T01940111 10194 20167 51005
cycle: 18

Station Type Date Time Source
KMHK TAF 2019/04/22 18:34 UTC NOAA

TAF KMHK 221731Z 2218/2318 30011KT P6SM BKN027
FM221900 32010KT P6SM SCT025 BKN050
FM230200 35008KT P6SM BKN150

Example: see airport list